Terminal Aerodrome Forecast
Issued by NWS

Home | Current Version | Previous Version | Graphics & Text | Print | Product List | Glossary On
Versions: 1 2 3 4 5 6 7 8 9 10 11 12 13 14 15 16 17 18 19
000
FTUS42 KMHX 011813 AAA
TAFOAJ
TAF AMD
KOAJ 011813Z 0118/0218 03005KT P6SM VCSH BKN035 OVC040
     FM012000 VRB05KT 5SM -RA OVC020
     FM020000 23005KT 4SM -RA OVC015
     FM020700 24005KT P6SM OVC030
     FM021500 30005KT P6SM OVC050
      AMD LTD TO CLD VIS AND WIND=

USA.gov is the U.S. government's official web portal to all federal, state and local government web resources and services.